Time;durP1;ratioP1;P1;durP2;ratioP2;P2;SDS_P1;SDS_P2;PMS_P1;PMS_P2;Temp;Humidity;BMP_temperature;BMP_pressure;BME280_temperature;BME280_humidity;BME280_pressure;Samples;Min_cycle;Max_cycle;Signal;HPM_P1;HPM_P2
2021/07/16 00:01:43;;;;;;;6.57;4.28;;;;;;;27.70;41.34;99139.34;5037324;28;20470;-75
2021/07/16 00:04:09;;;;;;;8.73;4.10;;;;;;;27.51;41.41;99121.22;5037558;28;20044;-73
2021/07/16 00:06:35;;;;;;;7.65;3.80;;;;;;;27.48;41.55;99142.69;5037353;28;20486;-74
2021/07/16 00:09:00;;;;;;;8.20;4.82;;;;;;;27.46;41.49;99126.69;5037281;28;20021;-74
2021/07/16 00:11:27;;;;;;;8.10;3.80;;;;;;;27.43;41.56;99134.63;5037189;28;20025;-74
2021/07/16 00:13:52;;;;;;;7.53;4.00;;;;;;;27.42;41.53;99133.03;5037398;28;20028;-73
2021/07/16 00:16:18;;;;;;;5.53;3.95;;;;;;;27.38;41.49;99130.09;5034881;28;20414;-73
2021/07/16 00:18:43;;;;;;;10.02;3.65;;;;;;;27.32;41.51;99139.44;5033982;28;20029;-74
2021/07/16 00:21:08;;;;;;;7.65;3.83;;;;;;;27.22;41.62;99140.41;5034359;28;20029;-73
2021/07/16 00:23:34;;;;;;;11.63;4.45;;;;;;;27.16;41.61;99144.31;5034113;28;20025;-73
2021/07/16 00:25:59;;;;;;;10.25;4.68;;;;;;;27.07;41.98;99137.16;5034080;28;20029;-74
2021/07/16 00:28:26;;;;;;;6.78;4.20;;;;;;;26.98;41.79;99141.63;5033807;28;20487;-74
2021/07/16 00:30:52;;;;;;;10.98;4.25;;;;;;;26.88;42.21;99139.88;5033771;28;20568;-74
2021/07/16 00:33:17;;;;;;;11.48;4.38;;;;;;;26.63;42.24;99107.72;5033989;28;20037;-74
2021/07/16 00:35:43;;;;;;;9.15;4.47;;;;;;;26.78;42.39;99135.41;5033823;28;20025;-74
2021/07/16 00:38:08;;;;;;;10.70;4.82;;;;;;;26.73;42.41;99134.66;5033758;28;20025;-74
2021/07/16 00:40:34;;;;;;;10.90;4.63;;;;;;;26.68;42.49;99123.91;5033867;28;20037;-75
2021/07/16 00:43:00;;;;;;;12.23;5.00;;;;;;;26.63;42.70;99122.06;5033690;28;20057;-74
2021/07/16 00:45:25;;;;;;;19.20;5.47;;;;;;;26.63;42.65;99126.69;5033516;28;20506;-74
2021/07/16 00:47:52;;;;;;;14.05;4.63;;;;;;;26.61;42.77;99116.16;5033454;28;21051;-73
2021/07/16 00:50:40;;;;;;;13.00;4.60;;;;;;;26.60;42.96;99118.03;5033517;28;20020;-75
2021/07/16 00:53:09;;;;;;;9.23;4.53;;;;;;;26.55;42.87;99111.91;5033523;28;20029;-74
2021/07/16 00:55:36;;;;;;;10.60;4.82;;;;;;;26.52;42.97;99115.19;5033304;28;20022;-74
2021/07/16 00:58:02;;;;;;;11.20;4.80;;;;;;;26.47;43.16;99107.94;5033179;28;20567;-74
2021/07/16 01:00:28;;;;;;;12.70;4.70;;;;;;;26.48;43.23;99116.88;5033449;28;20029;-74
2021/07/16 01:02:53;;;;;;;9.23;4.47;;;;;;;26.24;43.17;99070.91;5033482;28;20025;-73
2021/07/16 01:05:21;;;;;;;12.55;4.38;;;;;;;26.44;43.36;99111.25;5033235;28;20018;-74
2021/07/16 01:07:49;;;;;;;7.95;4.45;;;;;;;26.43;43.07;99106.94;5033206;28;20021;-73
2021/07/16 01:10:15;;;;;;;13.43;4.55;;;;;;;26.42;43.39;99105.31;5033127;28;20052;-74
2021/07/16 01:12:42;;;;;;;11.00;5.05;;;;;;;26.39;43.18;99105.91;5033029;28;20096;-74
2021/07/16 01:15:09;;;;;;;10.10;4.60;;;;;;;26.32;43.40;99104.63;5033206;28;20025;-75
2021/07/16 01:17:35;;;;;;;11.90;5.25;;;;;;;26.21;43.80;99112.88;5033118;28;20026;-73
2021/07/16 01:20:10;;;;;;;9.88;5.20;;;;;;;26.12;43.64;99111.13;5033017;28;20022;-74
2021/07/16 01:22:39;;;;;;;10.45;5.55;;;;;;;26.03;43.85;99107.44;5032837;28;20083;-75
2021/07/16 01:25:08;;;;;;;13.45;5.38;;;;;;;25.97;44.26;99110.19;5032978;28;20509;-74
2021/07/16 01:27:34;;;;;;;11.40;4.85;;;;;;;25.87;44.16;99110.31;5031511;28;20412;-74
2021/07/16 01:30:01;;;;;;;8.23;5.40;;;;;;;25.80;44.60;99115.25;5032806;28;20018;-75
2021/07/16 01:32:27;;;;;;;8.77;4.47;;;;;;;25.72;44.79;99110.50;5032859;28;20025;-74
2021/07/16 01:34:53;;;;;;;9.25;4.95;;;;;;;25.63;44.74;99113.00;5032715;28;20029;-74
2021/07/16 01:37:20;;;;;;;9.77;4.97;;;;;;;25.57;44.72;99105.22;5032679;28;20025;-74
2021/07/16 01:39:46;;;;;;;6.65;4.60;;;;;;;25.51;45.07;99106.38;5032668;28;20021;-74
2021/07/16 01:42:12;;;;;;;12.27;5.57;;;;;;;25.49;45.11;99109.34;5032611;28;20060;-74
2021/07/16 01:44:39;;;;;;;12.43;5.22;;;;;;;25.45;45.35;99108.31;5031416;28;20030;-73
2021/07/16 01:47:05;;;;;;;7.80;4.90;;;;;;;25.40;45.32;99110.28;5032481;28;20567;-74
2021/07/16 01:49:31;;;;;;;8.50;5.45;;;;;;;25.32;45.37;99104.41;5032384;28;20029;-74
2021/07/16 01:51:57;;;;;;;9.02;4.90;;;;;;;25.30;45.31;99101.16;5032509;28;20494;-75
2021/07/16 01:54:23;;;;;;;7.63;4.95;;;;;;;25.13;45.62;99081.03;5032327;28;20025;-73
2021/07/16 01:56:49;;;;;;;9.00;4.75;;;;;;;25.23;45.63;99105.25;5032694;28;20037;-74
2021/07/16 01:59:14;;;;;;;9.63;5.22;;;;;;;25.18;45.73;99111.53;5033305;28;20025;-74
2021/07/16 02:01:40;;;;;;;9.77;5.22;;;;;;;25.09;45.63;99112.41;5032310;28;20494;-74
2021/07/16 02:04:06;;;;;;;7.88;5.28;;;;;;;25.08;45.93;99113.50;5032279;28;20024;-73
2021/07/16 02:06:32;;;;;;;8.38;5.13;;;;;;;25.04;46.31;99110.56;5032146;28;20028;-74
2021/07/16 02:08:58;;;;;;;11.60;5.25;;;;;;;25.01;46.31;99111.94;5031856;28;20025;-74
2021/07/16 02:11:25;;;;;;;10.20;5.57;;;;;;;24.90;46.47;99102.28;5031847;28;20032;-73
2021/07/16 02:13:51;;;;;;;8.02;5.15;;;;;;;24.63;46.36;99070.38;5032037;28;20021;-74
2021/07/16 02:16:18;;;;;;;10.43;5.68;;;;;;;24.86;46.43;99116.63;5030657;28;20049;-74
2021/07/16 02:18:53;;;;;;;12.07;6.20;;;;;;;24.75;46.81;99115.09;5031933;28;20083;-74
2021/07/16 02:21:19;;;;;;;14.05;6.45;;;;;;;24.70;46.57;99122.16;5032137;28;20032;-74
2021/07/16 02:23:45;;;;;;;14.60;6.18;;;;;;;24.57;46.67;99095.78;5031956;28;20469;-74
2021/07/16 02:26:11;;;;;;;9.55;6.18;;;;;;;24.68;46.64;99127.03;5031668;28;20490;-74
2021/07/16 02:28:36;;;;;;;9.60;5.60;;;;;;;24.65;46.77;99127.59;5031775;28;20022;-74
2021/07/16 02:31:10;;;;;;;13.90;6.20;;;;;;;24.63;46.75;99120.84;5031914;28;20030;-74
2021/07/16 02:33:35;;;;;;;14.10;6.15;;;;;;;24.53;46.86;99110.94;5031825;28;20060;-74
2021/07/16 02:36:06;;;;;;;11.77;6.10;;;;;;;24.48;47.20;99113.63;5031645;28;20057;-74
2021/07/16 02:38:31;;;;;;;9.93;5.97;;;;;;;24.41;47.05;99096.94;5031465;28;20413;-73
2021/07/16 02:40:57;;;;;;;13.30;5.72;;;;;;;24.50;46.96;99102.53;5030623;28;20256;-74
2021/07/16 02:43:23;;;;;;;10.85;5.60;;;;;;;24.53;47.24;99113.63;5031762;28;20025;-73
2021/07/16 02:45:50;;;;;;;10.88;6.05;;;;;;;24.14;47.17;99045.28;5031435;28;20029;-73
2021/07/16 02:48:16;;;;;;;9.93;6.40;;;;;;;24.59;47.08;99096.31;5031597;28;20029;-74
2021/07/16 02:50:44;;;;;;;12.48;5.55;;;;;;;24.47;46.83;99071.53;5031652;28;20167;-73
2021/07/16 02:53:12;;;;;;;13.40;6.22;;;;;;;24.68;46.73;99100.03;5031402;28;20022;-74
2021/07/16 02:55:39;;;;;;;10.90;5.65;;;;;;;24.71;46.89;99107.56;5031479;28;20120;-74
2021/07/16 02:58:05;;;;;;;10.95;6.22;;;;;;;24.57;46.62;99086.88;5031223;28;20026;-74
2021/07/16 03:00:31;;;;;;;11.13;5.88;;;;;;;24.71;46.56;99104.84;5031125;28;20516;-74
2021/07/16 03:02:57;;;;;;;10.98;6.72;;;;;;;24.61;46.89;99104.13;5031355;28;20025;-76
2021/07/16 03:05:34;;;;;;;10.82;5.88;;;;;;;24.71;46.55;99101.34;5031338;28;20052;-74
2021/07/16 03:07:59;;;;;;;10.30;6.72;;;;;;;24.24;46.56;99029.03;5031405;28;20021;-75
2021/07/16 03:10:29;;;;;;;10.98;6.13;;;;;;;24.69;46.65;99104.34;5031489;28;20021;-74
2021/07/16 03:12:56;;;;;;;11.88;6.45;;;;;;;24.67;46.92;99103.81;5031175;28;20036;-75
2021/07/16 03:15:24;;;;;;;10.20;6.97;;;;;;;24.62;47.00;99100.34;5031436;28;20029;-74
2021/07/16 03:17:50;;;;;;;10.80;7.50;;;;;;;24.59;47.01;99103.59;5031422;28;20025;-74
2021/07/16 03:20:22;;;;;;;13.88;6.90;;;;;;;24.58;46.92;99107.38;5031118;28;20033;-74
2021/07/16 03:22:48;;;;;;;13.98;6.65;;;;;;;24.36;47.05;99083.47;5031547;28;20096;-74
2021/07/16 03:25:17;;;;;;;10.35;7.57;;;;;;;24.48;47.33;99112.81;5030311;28;20072;-74
2021/07/16 03:27:44;;;;;;;14.15;7.97;;;;;;;24.45;47.18;99116.88;5031513;28;20021;-74
2021/07/16 03:30:13;;;;;;;22.17;7.28;;;;;;;24.44;47.22;99112.56;5049189;28;20078;-74
2021/07/16 03:32:38;;;;;;;13.27;7.53;;;;;;;24.43;47.26;99115.53;5041941;28;20021;-74
2021/07/16 03:35:06;;;;;;;13.25;6.82;;;;;;;24.32;47.71;99112.91;5050731;28;20386;-74
2021/07/16 03:37:31;;;;;;;13.30;7.00;;;;;;;24.25;47.76;99115.06;5050723;28;20025;-74
2021/07/16 03:39:56;;;;;;;16.77;7.35;;;;;;;24.20;47.84;99109.72;5050952;28;20025;-74
2021/07/16 03:42:22;;;;;;;11.88;7.18;;;;;;;24.27;47.81;99115.63;5050735;28;20052;-74
2021/07/16 03:44:47;;;;;;;11.35;7.10;;;;;;;24.23;47.67;99100.25;5050956;28;20111;-75
2021/07/16 03:47:14;;;;;;;11.35;6.90;;;;;;;24.27;47.49;99110.25;5050781;28;20025;-74
2021/07/16 03:49:40;;;;;;;12.52;6.60;;;;;;;24.36;47.22;99118.56;5050961;28;20090;-74
2021/07/16 03:52:06;;;;;;;15.50;7.72;;;;;;;24.27;47.58;99102.16;5053632;28;20555;-74
2021/07/16 03:54:32;;;;;;;13.27;7.18;;;;;;;24.37;47.65;99131.78;5054407;28;20104;-75
2021/07/16 03:56:57;;;;;;;14.80;7.38;;;;;;;24.35;47.56;99125.84;5054110;28;20032;-75
2021/07/16 03:59:23;;;;;;;12.55;7.18;;;;;;;24.37;47.76;99120.16;5054552;28;20017;-74
2021/07/16 04:01:48;;;;;;;9.52;7.63;;;;;;;24.39;47.71;99129.59;5054650;28;20498;-75
2021/07/16 04:04:15;;;;;;;9.40;7.20;;;;;;;24.42;47.59;99127.44;5054462;28;20013;-75
2021/07/16 04:06:41;;;;;;;11.02;7.55;;;;;;;24.43;47.52;99134.44;5054377;28;20563;-74
2021/07/16 04:09:20;;;;;;;13.07;7.10;;;;;;;24.43;47.57;99129.84;5054166;28;20413;-75
2021/07/16 04:11:46;;;;;;;9.43;7.03;;;;;;;24.44;47.70;99128.75;5053882;28;20564;-73
2021/07/16 04:14:11;;;;;;;11.10;7.72;;;;;;;24.45;47.81;99133.06;5054226;28;20112;-73
2021/07/16 04:16:37;;;;;;;12.38;8.20;;;;;;;24.43;47.65;99121.75;5054238;28;20031;-73
2021/07/16 04:19:02;;;;;;;14.18;7.22;;;;;;;24.44;47.67;99128.75;5054014;28;20025;-73
2021/07/16 04:21:28;;;;;;;11.70;7.63;;;;;;;24.39;47.79;99134.19;5054051;28;20021;-73
2021/07/16 04:23:53;;;;;;;11.43;7.43;;;;;;;24.42;47.98;99139.03;5053952;28;20447;-73
2021/07/16 04:26:18;;;;;;;14.63;8.55;;;;;;;24.49;47.73;99139.53;5054193;28;20021;-73
2021/07/16 04:28:44;;;;;;;12.50;8.00;;;;;;;24.54;48.00;99146.81;5053994;28;20037;-74
2021/07/16 04:31:09;;;;;;;12.15;8.80;;;;;;;24.40;48.02;99117.72;5053668;28;20473;-74
2021/07/16 04:33:35;;;;;;;11.98;8.00;;;;;;;24.37;48.01;99118.28;5053837;28;20027;-74
2021/07/16 04:36:00;;;;;;;11.35;8.05;;;;;;;24.52;48.17;99140.84;5053734;28;20017;-74
2021/07/16 04:38:25;;;;;;;13.15;9.20;;;;;;;24.61;48.04;99144.63;5053755;28;20409;-74
2021/07/16 04:40:51;;;;;;;16.75;11.02;;;;;;;24.70;47.95;99138.34;5053611;28;20104;-74
2021/07/16 04:43:16;;;;;;;22.05;11.68;;;;;;;24.64;47.79;99144.88;5053618;28;20036;-74
2021/07/16 04:45:41;;;;;;;16.45;12.80;;;;;;;24.76;47.74;99149.91;5054075;28;20100;-73
2021/07/16 04:48:07;;;;;;;14.52;11.40;;;;;;;24.48;48.25;99110.13;5053562;28;20025;-74
2021/07/16 04:50:33;;;;;;;21.40;12.63;;;;;;;24.71;48.33;99144.56;5053694;28;20025;-75
2021/07/16 04:52:58;;;;;;;13.70;11.00;;;;;;;24.21;48.32;99072.75;5053512;28;20024;-75
2021/07/16 04:55:24;;;;;;;16.63;10.43;;;;;;;24.80;48.42;99147.47;5053575;28;20130;-74
2021/07/16 04:57:49;;;;;;;15.13;12.13;;;;;;;24.91;48.53;99152.50;5053146;28;20500;-75
2021/07/16 05:00:16;;;;;;;21.52;11.65;;;;;;;25.02;48.27;99166.78;5053410;28;20018;-75
2021/07/16 05:02:42;;;;;;;25.23;11.82;;;;;;;25.13;48.13;99157.50;5052479;28;20032;-74
2021/07/16 05:05:08;;;;;;;14.73;11.02;;;;;;;25.24;47.90;99155.50;5053565;28;20025;-74
2021/07/16 05:07:34;;;;;;;16.33;12.43;;;;;;;25.16;48.11;99143.44;5053033;28;20017;-75
2021/07/16 05:09:59;;;;;;;19.42;11.85;;;;;;;25.37;47.88;99157.59;5052837;28;20482;-73
2021/07/16 05:12:25;;;;;;;14.85;11.25;;;;;;;25.28;48.16;99116.06;5052847;28;20017;-72
2021/07/16 05:14:51;;;;;;;20.60;12.27;;;;;;;25.61;47.82;99157.63;5053038;28;20031;-74
2021/07/16 05:17:16;;;;;;;19.58;10.60;;;;;;;25.68;47.32;99149.22;5052893;28;20482;-73
2021/07/16 05:19:42;;;;;;;16.02;10.30;;;;;;;25.75;47.45;99161.28;5053051;28;20021;-73
2021/07/16 05:22:07;;;;;;;21.02;10.88;;;;;;;25.84;46.97;99156.06;5052829;28;20471;-74
2021/07/16 05:24:33;;;;;;;21.52;11.43;;;;;;;25.93;47.08;99160.56;5052898;28;20025;-74
2021/07/16 05:26:59;;;;;;;18.83;11.23;;;;;;;25.86;46.90;99132.25;5052780;28;20494;-74
2021/07/16 05:29:24;;;;;;;14.45;10.63;;;;;;;26.00;46.85;99154.00;5052722;28;20024;-73
2021/07/16 05:31:50;;;;;;;16.58;9.88;;;;;;;25.72;46.84;99096.97;5052835;28;20024;-74
2021/07/16 05:34:16;;;;;;;16.60;10.95;;;;;;;26.15;47.00;99153.84;5052590;28;20032;-75
2021/07/16 05:36:42;;;;;;;18.75;11.70;;;;;;;26.21;46.60;99148.06;5052160;28;20032;-76
2021/07/16 05:39:07;;;;;;;19.35;11.73;;;;;;;26.17;47.04;99143.53;5052345;28;20021;-74
2021/07/16 05:41:32;;;;;;;18.50;11.57;;;;;;;26.24;46.96;99135.84;5052130;28;20047;-74
2021/07/16 05:43:58;;;;;;;16.92;11.18;;;;;;;25.81;46.66;99075.50;5052581;28;20421;-74
2021/07/16 05:46:26;;;;;;;17.90;11.38;;;;;;;26.34;46.50;99143.06;5052085;28;20017;-74
2021/07/16 05:48:52;;;;;;;22.20;12.38;;;;;;;26.26;46.44;99126.34;5052078;28;20016;-73
2021/07/16 05:51:17;;;;;;;17.02;12.23;;;;;;;26.37;46.60;99142.47;5052185;28;20100;-75
2021/07/16 05:53:42;;;;;;;22.60;13.20;;;;;;;26.43;46.39;99127.78;5052223;28;20029;-74
2021/07/16 05:56:08;;;;;;;27.73;14.77;;;;;;;26.47;46.25;99136.94;5052302;28;20033;-74
2021/07/16 05:58:33;;;;;;;21.33;15.50;;;;;;;26.35;46.21;99104.06;5052212;28;20409;-74
2021/07/16 06:00:59;;;;;;;21.52;14.77;;;;;;;26.56;46.15;99124.34;5051783;28;20025;-74
2021/07/16 06:03:25;;;;;;;24.77;14.40;;;;;;;26.57;46.29;99134.88;5051906;28;20020;-74
2021/07/16 06:05:50;;;;;;;19.88;13.93;;;;;;;26.59;45.98;99121.03;5051808;28;20028;-74
2021/07/16 06:08:16;;;;;;;21.30;12.23;;;;;;;26.77;46.07;99139.22;5051973;28;20029;-74
2021/07/16 06:10:41;;;;;;;17.38;11.95;;;;;;;26.87;45.57;99140.97;5052045;28;20440;-74
2021/07/16 06:13:06;;;;;;;22.65;11.93;;;;;;;26.89;45.44;99134.16;5051697;28;20024;-74
2021/07/16 06:15:32;;;;;;;18.20;11.40;;;;;;;26.83;45.40;99116.38;5050655;28;20028;-74
2021/07/16 06:17:57;;;;;;;21.05;11.60;;;;;;;27.03;45.16;99133.44;5051718;28;20024;-74
2021/07/16 06:20:23;;;;;;;17.60;10.73;;;;;;;27.10;45.02;99134.66;5051623;28;20468;-74
2021/07/16 06:22:49;;;;;;;17.27;10.93;;;;;;;26.83;44.97;99088.47;5051684;28;20104;-74
2021/07/16 06:25:17;;;;;;;24.58;11.68;;;;;;;27.23;44.93;99144.72;5051665;28;20067;-75
2021/07/16 06:27:43;;;;;;;25.50;11.90;;;;;;;27.22;44.95;99136.91;5051603;28;20025;-75
2021/07/16 06:30:09;;;;;;;28.90;12.30;;;;;;;27.37;44.61;99139.34;5051519;28;20036;-75
2021/07/16 06:32:35;;;;;;;20.33;12.25;;;;;;;26.82;44.74;99055.16;5051243;28;20463;-75
2021/07/16 06:35:02;;;;;;;18.73;11.57;;;;;;;27.23;44.06;99104.06;5051491;28;20020;-75
2021/07/16 06:37:27;;;;;;;18.90;11.15;;;;;;;27.64;44.27;99137.84;5051252;28;20021;-73
2021/07/16 06:39:52;;;;;;;20.60;12.48;;;;;;;27.70;44.00;99131.22;5051263;28;20027;-75
2021/07/16 06:42:18;;;;;;;22.48;12.73;;;;;;;27.64;43.83;99118.84;5051110;28;20172;-73
2021/07/16 06:44:43;;;;;;;13.93;10.57;;;;;;;27.51;43.83;99091.38;5051078;28;20178;-72
2021/07/16 06:47:10;;;;;;;18.38;10.95;;;;;;;27.81;43.60;99130.72;5051071;28;20017;-73
2021/07/16 06:49:36;;;;;;;18.55;10.52;;;;;;;27.92;43.27;99125.06;5051262;28;20021;-74
2021/07/16 06:52:01;;;;;;;22.58;10.35;;;;;;;27.98;43.15;99129.28;5051346;28;20097;-74
2021/07/16 06:54:27;;;;;;;21.45;10.10;;;;;;;27.97;42.82;99120.34;5051246;28;20044;-74
2021/07/16 06:56:54;;;;;;;19.70;9.30;;;;;;;28.08;42.45;99123.66;5051292;28;20029;-74
2021/07/16 06:59:20;;;;;;;21.67;9.80;;;;;;;28.16;42.23;99131.88;5050947;28;20615;-73
2021/07/16 07:01:45;;;;;;;18.70;9.50;;;;;;;28.24;42.40;99127.72;5051112;28;20036;-75
2021/07/16 07:04:11;;;;;;;28.83;9.93;;;;;;;28.26;41.75;99119.25;5051084;28;20028;-75
2021/07/16 07:06:36;;;;;;;24.70;9.10;;;;;;;28.30;41.83;99126.50;5050998;28;20078;-73
2021/07/16 07:09:03;;;;;;;23.75;9.98;;;;;;;28.31;41.70;99128.09;5051414;28;20020;-73
2021/07/16 07:11:28;;;;;;;20.27;9.52;;;;;;;28.35;41.38;99120.16;5051131;28;20016;-75
2021/07/16 07:13:53;;;;;;;16.40;8.32;;;;;;;28.40;41.06;99111.91;5051044;28;20032;-73
2021/07/16 07:16:19;;;;;;;23.45;7.95;;;;;;;28.50;40.69;99129.88;5050894;28;20045;-74
2021/07/16 07:18:44;;;;;;;20.38;9.30;;;;;;;28.55;40.08;99124.31;5050862;28;20459;-74
2021/07/16 07:21:10;;;;;;;21.17;9.18;;;;;;;28.62;40.29;99121.97;5050819;28;20032;-74
2021/07/16 07:23:36;;;;;;;24.48;9.02;;;;;;;28.71;39.39;99118.22;5051026;28;20070;-74
2021/07/16 07:26:02;;;;;;;18.38;8.32;;;;;;;28.73;39.31;99112.47;5050940;28;20051;-74
2021/07/16 07:28:27;;;;;;;18.13;7.47;;;;;;;28.83;39.11;99139.41;5054978;28;20025;-74
2021/07/16 07:30:53;;;;;;;25.98;8.32;;;;;;;28.88;38.88;99109.44;5054713;28;20032;-75
2021/07/16 07:33:19;;;;;;;21.80;8.85;;;;;;;28.98;38.68;99114.63;5054759;28;20025;-75
2021/07/16 07:35:44;;;;;;;14.70;7.55;;;;;;;28.93;38.47;99103.88;5054657;28;20025;-74
2021/07/16 07:38:10;;;;;;;21.35;7.72;;;;;;;29.10;38.17;99108.66;5054723;28;20031;-74
2021/07/16 07:40:36;;;;;;;18.05;7.25;;;;;;;29.17;37.62;99113.63;5054477;28;20109;-75
2021/07/16 07:43:04;;;;;;;15.55;6.68;;;;;;;29.20;37.45;99102.13;5054296;28;20048;-74
2021/07/16 07:45:30;;;;;;;16.05;5.93;;;;;;;29.39;36.94;99102.72;5054520;28;20468;-74
2021/07/16 07:47:55;;;;;;;11.93;6.45;;;;;;;29.41;36.96;99089.59;5054491;28;20025;-74
2021/07/16 07:50:22;;;;;;;11.80;7.10;;;;;;;29.54;36.96;99088.75;5054651;28;20082;-75
2021/07/16 07:52:50;;;;;;;12.23;7.05;;;;;;;29.71;36.99;99099.69;5054384;28;20107;-74
2021/07/16 07:55:17;;;;;;;12.02;5.63;;;;;;;29.82;36.50;99093.97;5054451;28;20032;-74
2021/07/16 07:57:42;;;;;;;11.85;6.30;;;;;;;29.92;36.00;99097.22;5054226;28;20041;-73
2021/07/16 08:00:12;;;;;;;20.50;6.38;;;;;;;30.01;35.98;99097.22;5054009;28;20143;-74
2021/07/16 08:02:37;;;;;;;12.32;6.50;;;;;;;30.11;35.77;99098.88;5053892;28;20107;-74
2021/07/16 08:05:03;;;;;;;11.98;6.40;;;;;;;30.07;36.20;99067.97;5053041;28;20109;-75
2021/07/16 08:07:29;;;;;;;16.98;6.28;;;;;;;30.27;34.50;99094.59;5054331;28;20028;-75
2021/07/16 08:09:54;;;;;;;11.23;5.75;;;;;;;29.82;34.47;99029.47;5054237;28;20445;-74
2021/07/16 08:12:20;;;;;;;15.23;5.82;;;;;;;30.24;34.56;99076.16;5054752;28;20028;-73
2021/07/16 08:14:45;;;;;;;8.63;5.25;;;;;;;30.45;33.59;99098.13;5054244;28;20024;-74
2021/07/16 08:17:10;;;;;;;11.07;5.45;;;;;;;30.55;32.96;99095.91;5053808;28;20104;-74
2021/07/16 08:19:36;;;;;;;12.05;5.72;;;;;;;30.58;33.31;99089.00;5053575;28;20021;-73
2021/07/16 08:22:01;;;;;;;13.38;8.98;;;;;;;30.26;33.29;99036.59;5053647;28;20017;-73
2021/07/16 08:24:27;;;;;;;11.13;5.10;;;;;;;30.78;32.33;99085.66;5053690;28;20028;-74
2021/07/16 08:26:53;;;;;;;11.25;5.70;;;;;;;30.76;32.18;99060.66;5053847;28;20103;-74
2021/07/16 08:29:19;;;;;;;11.57;6.20;;;;;;;30.26;32.51;98970.41;5053840;28;20017;-74
2021/07/16 08:31:44;;;;;;;13.63;5.72;;;;;;;31.05;32.32;99083.69;5053551;28;20095;-72
2021/07/16 08:34:10;;;;;;;10.55;5.05;;;;;;;31.13;32.26;99067.31;5053590;28;20021;-73
2021/07/16 08:36:36;;;;;;;9.77;5.18;;;;;;;31.29;31.46;99070.34;5053219;28;20100;-74
2021/07/16 08:39:04;;;;;;;6.72;4.20;;;;;;;30.87;30.51;98984.78;5052474;28;20553;-74
2021/07/16 08:41:30;;;;;;;6.25;4.50;;;;;;;30.94;30.32;98999.50;5053367;28;20076;-74
2021/07/16 08:43:55;;;;;;;10.52;4.85;;;;;;;30.89;30.59;98977.09;5053212;28;20048;-75
2021/07/16 08:46:21;;;;;;;9.38;4.45;;;;;;;31.08;30.65;98973.97;5053175;28;20035;-73
2021/07/16 08:48:48;;;;;;;14.57;5.22;;;;;;;31.70;30.02;99052.53;5052886;28;20029;-73
2021/07/16 08:51:18;;;;;;;10.82;5.18;;;;;;;31.84;29.90;99067.56;5053113;28;20052;-74
2021/07/16 08:53:47;;;;;;;8.90;4.97;;;;;;;31.89;29.91;99048.25;5051816;28;20025;-73
2021/07/16 08:56:13;;;;;;;25.50;5.57;;;;;;;32.12;29.06;99056.97;5049608;28;20028;-73
2021/07/16 08:58:38;;;;;;;9.25;4.22;;;;;;;32.21;29.12;99046.78;5033342;28;20029;-74
2021/07/16 09:01:04;;;;;;;16.77;5.63;;;;;;;32.34;29.32;99050.41;5035524;28;20030;-75
2021/07/16 09:03:30;;;;;;;7.07;4.80;;;;;;;32.49;28.54;99057.19;5044065;28;20021;-75
2021/07/16 09:05:55;;;;;;;9.50;4.20;;;;;;;32.59;27.61;99048.56;5034661;28;20087;-75
2021/07/16 09:08:22;;;;;;;10.25;4.82;;;;;;;32.72;27.72;99055.72;5051826;28;20096;-75
2021/07/16 09:10:52;;;;;;;8.18;4.75;;;;;;;32.90;27.74;99050.88;5046746;28;20028;-73
2021/07/16 09:13:19;;;;;;;7.47;4.82;;;;;;;32.70;27.82;99006.03;5031647;28;20033;-75
2021/07/16 09:15:54;;;;;;;10.00;5.40;;;;;;;33.10;27.90;99043.75;5032726;28;20021;-74
2021/07/16 09:18:26;;;;;;;13.50;7.20;;;;;;;33.29;27.29;99044.00;5032781;28;20042;-74
2021/07/16 09:21:01;;;;;;;13.60;9.07;;;;;;;33.31;27.65;99041.75;5033015;28;20025;-74
2021/07/16 09:23:33;;;;;;;11.10;7.53;;;;;;;33.35;27.58;99029.00;5042194;28;20146;-81
2021/07/16 09:26:13;;;;;;;11.85;6.88;;;;;;;33.48;27.75;99024.34;5052637;28;20112;-80
2021/07/16 09:28:44;;;;;;;15.90;7.40;;;;;;;33.60;27.21;99012.59;5051733;28;20462;-80
2021/07/16 09:31:12;;;;;;;;;;;;;;;33.71;27.61;99033.69;5052874;28;20025;-80
2021/07/16 09:33:56;;;;;;;9.07;6.15;;;;;;;33.91;26.83;99026.50;5052335;28;19916;-80
2021/07/16 09:36:23;;;;;;;8.85;6.03;;;;;;;34.14;26.73;99028.72;5052539;28;20021;-79
2021/07/16 09:38:51;;;;;;;9.50;6.90;;;;;;;34.32;26.96;99014.44;5053986;28;20497;-79
2021/07/16 09:41:16;;;;;;;10.77;7.20;;;;;;;34.51;26.65;99007.53;5062706;28;20521;-80
2021/07/16 09:43:42;;;;;;;16.08;9.07;;;;;;;34.68;25.84;99013.47;5052436;28;20039;-80
2021/07/16 09:46:07;;;;;;;13.10;6.03;;;;;;;34.73;26.16;99018.72;5050869;28;20037;-79
2021/07/16 09:48:37;;;;;;;10.50;7.22;;;;;;;34.82;26.13;99001.28;5055257;28;20017;-80
2021/07/16 09:51:13;;;;;;;8.93;5.32;;;;;;;35.06;25.50;99012.16;5065337;28;20417;-78
2021/07/16 09:53:49;;;;;;;9.98;4.90;;;;;;;35.14;24.99;98989.25;5044682;28;20151;-79
2021/07/16 09:56:21;;;;;;;7.50;5.70;;;;;;;35.47;24.94;98999.06;5043258;28;20099;-80
2021/07/16 09:58:49;;;;;;;9.95;3.88;;;;;;;35.70;24.11;98993.72;5032298;28;20013;-79
2021/07/16 10:01:15;;;;;;;10.32;5.10;;;;;;;35.59;24.16;98955.81;5047966;28;20106;-80
2021/07/16 10:03:42;;;;;;;6.90;5.95;;;;;;;36.04;23.31;99001.19;5050768;28;20025;-80
2021/07/16 10:06:12;;;;;;;11.75;5.93;;;;;;;36.05;22.49;98996.47;5051974;28;20025;-78
2021/07/16 10:08:39;;;;;;;9.18;5.90;;;;;;;36.19;22.47;98991.28;5051965;28;20048;-81
2021/07/16 10:11:05;;;;;;;11.00;7.15;;;;;;;36.17;22.34;98975.16;5051981;28;20028;-77
2021/07/16 10:13:34;;;;;;;9.85;5.15;;;;;;;36.29;21.78;98974.22;5033779;28;20506;-80
2021/07/16 10:16:00;;;;;;;10.38;5.63;;;;;;;36.43;21.74;98971.78;5031598;28;20029;-80
2021/07/16 10:18:26;;;;;;;11.13;6.90;;;;;;;36.40;21.56;98944.19;5030589;28;20033;-80
2021/07/16 10:20:52;;;;;;;16.65;6.88;;;;;;;36.81;22.09;98992.16;5040114;28;20029;-80
2021/07/16 10:23:18;;;;;;;9.95;5.35;;;;;;;36.57;21.50;98899.75;5049778;28;20040;-74
2021/07/16 10:25:48;;;;;;;8.48;4.25;;;;;;;37.13;20.51;98965.97;5034957;28;20056;-75
2021/07/16 10:28:41;;;;;;;6.15;4.10;;;;;;;37.04;20.47;98972.88;5049144;28;20108;-73
2021/07/16 10:31:29;;;;;;;9.95;4.60;;;;;;;37.25;20.49;98961.47;5031684;28;20028;-75
2021/07/16 10:34:02;;;;;;;9.52;4.53;;;;;;;37.29;20.32;98957.59;5037414;28;20025;-73
2021/07/16 10:36:37;;;;;;;8.13;3.72;;;;;;;37.34;20.35;98962.00;5046943;28;20487;-73
2021/07/16 10:39:08;;;;;;;7.47;4.03;;;;;;;36.98;20.47;98900.03;5043770;28;20075;-73
2021/07/16 10:41:40;;;;;;;9.63;3.75;;;;;;;37.12;20.23;98923.06;5031415;28;20051;-74
2021/07/16 10:44:06;;;;;;;4.60;3.28;;;;;;;37.74;19.41;98959.47;5041986;28;20505;-74
2021/07/16 10:46:42;;;;;;;6.15;3.47;;;;;;;37.85;19.63;98943.84;5047033;28;20111;-74
2021/07/16 10:49:12;;;;;;;6.30;3.15;;;;;;;38.03;19.28;98943.31;5045387;28;20020;-72
2021/07/16 10:51:39;;;;;;;7.28;4.20;;;;;;;38.23;19.13;98943.97;5039023;28;20547;-75
2021/07/16 10:54:09;;;;;;;8.93;4.13;;;;;;;37.47;19.19;98807.19;5041503;28;20118;-72
2021/07/16 10:56:38;;;;;;;8.18;5.45;;;;;;;38.34;19.25;98933.84;5050523;28;20025;-73
2021/07/16 10:59:05;;;;;;;8.60;6.90;;;;;;;38.51;19.40;98941.50;5049356;28;20141;-74
2021/07/16 11:01:39;;;;;;;12.50;8.32;;;;;;;38.57;18.77;98939.97;5046319;28;20108;-73
2021/07/16 11:04:07;;;;;;;8.93;6.72;;;;;;;38.85;18.87;98938.72;5036757;28;20422;-72
2021/07/16 11:06:51;;;;;;;7.88;5.60;;;;;;;39.17;19.31;98936.22;5040786;28;20071;-72
2021/07/16 11:09:42;;;;;;;9.23;5.22;;;;;;;39.37;18.75;98938.34;5029200;28;20100;-73
2021/07/16 11:12:18;;;;;;;7.63;6.25;;;;;;;39.59;19.10;98933.78;5035879;28;20032;-75
2021/07/16 11:14:44;;;;;;;6.53;4.40;;;;;;;39.62;18.57;98941.28;5046870;28;20025;-74
2021/07/16 11:17:23;;;;;;;7.60;4.63;;;;;;;39.61;18.64;98917.59;5041489;28;20021;-74
2021/07/16 11:20:12;;;;;;;8.93;5.05;;;;;;;39.87;18.79;98921.28;5050490;28;20564;-73
2021/07/16 11:23:13;;;;;;;9.25;4.22;;;;;;;39.68;18.46;98922.38;5036153;28;20029;-73
2021/07/16 11:25:42;;;;;;;8.23;5.32;;;;;;;39.63;19.05;98918.00;5019529;28;20097;-79
2021/07/16 11:28:09;;;;;;;8.68;5.13;;;;;;;39.09;18.68;98814.69;5043827;28;20116;-79